createdAt,value
2017-03-25T00:00:34.565Z,0
2017-03-25T00:01:44.165Z,0
2017-03-25T00:02:54.159Z,0
2017-03-25T00:04:03.844Z,0
2017-03-25T00:05:13.451Z,0
2017-03-25T00:06:23.656Z,0
2017-03-25T00:07:33.821Z,0
2017-03-25T00:08:43.406Z,0
2017-03-25T00:09:53.327Z,0
2017-03-25T00:11:03.291Z,0
2017-03-25T00:12:13.483Z,0
2017-03-25T00:13:23.415Z,0
2017-03-25T00:14:33.424Z,0
2017-03-25T00:15:43.336Z,0
2017-03-25T00:16:53.307Z,0
2017-03-25T00:19:17.278Z,0
2017-03-25T00:20:27.259Z,0
2017-03-25T00:21:37.207Z,0
2017-03-25T00:22:46.803Z,0
2017-03-25T00:23:56.475Z,0
2017-03-25T00:25:06.398Z,0
2017-03-25T00:26:16.404Z,0
2017-03-25T00:27:26.435Z,0
2017-03-25T00:28:36.380Z,0
2017-03-25T00:29:46.404Z,0
2017-03-25T00:30:56.745Z,0
2017-03-25T00:32:06.655Z,0
2017-03-25T00:33:16.657Z,0
2017-03-25T00:34:26.306Z,0
2017-03-25T00:35:35.927Z,0
2017-03-25T00:36:45.433Z,0
2017-03-25T00:37:55.029Z,0
2017-03-25T00:39:05.037Z,0
2017-03-25T00:40:14.984Z,0
2017-03-25T00:41:24.892Z,0
2017-03-25T00:42:35.080Z,0
2017-03-25T00:43:44.658Z,0
2017-03-25T00:44:54.601Z,0
2017-03-25T00:46:04.186Z,0
2017-03-25T00:47:13.764Z,0
2017-03-25T00:48:23.959Z,0
2017-03-25T00:49:33.610Z,0
2017-03-25T00:50:43.580Z,0
2017-03-25T00:51:53.527Z,0
2017-03-25T00:53:03.143Z,0
2017-03-25T00:54:12.982Z,0
2017-03-25T00:55:22.903Z,0
2017-03-25T00:56:32.896Z,0
2017-03-25T00:57:42.852Z,0
2017-03-25T00:58:52.799Z,0
2017-03-25T01:00:03.005Z,0
2017-03-25T01:01:12.597Z,0
2017-03-25T01:02:22.626Z,0
2017-03-25T01:03:32.272Z,0
2017-03-25T01:04:42.194Z,0
2017-03-25T01:05:51.717Z,0
2017-03-25T01:07:01.643Z,0
2017-03-25T01:08:11.254Z,0
2017-03-25T01:09:21.280Z,0
2017-03-25T01:10:31.253Z,0
2017-03-25T01:11:41.485Z,0
2017-03-25T01:12:51.423Z,0
2017-03-25T01:14:01.003Z,0
2017-03-25T01:15:10.909Z,0
2017-03-25T01:16:20.323Z,0
2017-03-25T01:17:29.950Z,0
2017-03-25T01:18:39.863Z,0
2017-03-25T01:19:49.138Z,0
2017-03-25T01:20:58.768Z,0
2017-03-25T01:22:08.888Z,0
2017-03-25T01:23:19.070Z,0
2017-03-25T01:24:28.656Z,0
2017-03-25T01:25:38.820Z,0
2017-03-25T01:26:48.754Z,0
2017-03-25T01:27:58.415Z,0
2017-03-25T01:29:08.574Z,0
2017-03-25T01:30:18.514Z,0
2017-03-25T01:31:28.110Z,0
2017-03-25T01:32:38.059Z,0
2017-03-25T01:33:47.951Z,0
2017-03-25T01:34:58.118Z,0
2017-03-25T01:36:08.074Z,0
2017-03-25T01:37:17.687Z,0
2017-03-25T01:38:27.306Z,0
2017-03-25T01:39:36.884Z,0
2017-03-25T01:40:47.161Z,0
2017-03-25T01:41:56.771Z,0
2017-03-25T01:43:06.525Z,0
2017-03-25T01:44:16.152Z,0
2017-03-25T01:45:26.059Z,0
2017-03-25T01:46:36.305Z,0
2017-03-25T01:47:46.212Z,0
2017-03-25T01:48:55.512Z,0
2017-03-25T01:50:05.578Z,0
2017-03-25T01:51:15.186Z,0
2017-03-25T01:52:25.097Z,0
2017-03-25T01:53:35.043Z,0
2017-03-25T01:54:45.201Z,0
2017-03-25T01:55:55.349Z,0
2017-03-25T01:57:05.293Z,0
2017-03-25T01:58:15.542Z,0
2017-03-25T01:59:25.438Z,0
2017-03-25T02:00:35.417Z,0
2017-03-25T02:01:45.320Z,0
2017-03-25T02:02:55.300Z,0
2017-03-25T02:04:05.506Z,0
2017-03-25T02:05:15.089Z,0
2017-03-25T02:06:25.006Z,0
2017-03-25T02:07:34.596Z,0
2017-03-25T02:08:44.190Z,0
2017-03-25T02:09:54.071Z,0
2017-03-25T02:11:04.210Z,0
2017-03-25T02:12:14.131Z,0
2017-03-25T02:13:24.052Z,0
2017-03-25T02:14:33.666Z,0
2017-03-25T02:15:43.562Z,0
2017-03-25T02:16:53.474Z,0
2017-03-25T02:18:03.144Z,0
2017-03-25T02:19:13.190Z,0
2017-03-25T02:20:22.785Z,0
2017-03-25T02:21:32.301Z,0
2017-03-25T02:22:41.914Z,0
2017-03-25T02:23:51.844Z,0
2017-03-25T02:25:01.503Z,0
2017-03-25T02:26:11.131Z,0
2017-03-25T02:27:21.191Z,0
2017-03-25T02:28:30.762Z,0
2017-03-25T02:29:40.658Z,0
2017-03-25T02:30:50.238Z,0
2017-03-25T02:32:00.146Z,0
2017-03-25T02:33:09.983Z,0
2017-03-25T02:34:19.244Z,0
2017-03-25T02:35:29.202Z,0
2017-03-25T02:36:39.234Z,0
2017-03-25T02:37:49.016Z,0
2017-03-25T02:38:59.238Z,0
2017-03-25T02:40:09.206Z,0
2017-03-25T02:41:19.226Z,0
2017-03-25T02:42:28.882Z,0
2017-03-25T02:43:38.799Z,0
2017-03-25T02:44:49.093Z,0
2017-03-25T02:45:59.080Z,0
2017-03-25T02:47:09.037Z,0
2017-03-25T02:48:18.644Z,0
2017-03-25T02:49:28.238Z,0
2017-03-25T02:50:38.425Z,0
2017-03-25T02:51:48.038Z,0
2017-03-25T02:52:57.995Z,0
2017-03-25T02:54:07.913Z,0
2017-03-25T02:55:17.823Z,0
2017-03-25T02:56:28.017Z,0
2017-03-25T02:57:37.965Z,0
2017-03-25T02:58:47.938Z,0
2017-03-25T02:59:57.236Z,0
2017-03-25T03:01:07.247Z,0
2017-03-25T03:02:17.403Z,0
2017-03-25T03:03:27.000Z,0
2017-03-25T03:04:36.297Z,0
2017-03-25T03:05:46.242Z,0
2017-03-25T03:06:56.140Z,0
2017-03-25T03:08:06.389Z,0
2017-03-25T03:09:15.678Z,0
2017-03-25T03:10:25.249Z,0
2017-03-25T03:11:35.282Z,0
2017-03-25T03:12:45.183Z,0
2017-03-25T03:13:55.399Z,0
2017-03-25T03:15:04.996Z,0
2017-03-25T03:16:14.622Z,0
2017-03-25T03:17:24.249Z,0
2017-03-25T03:18:34.219Z,0
2017-03-25T03:19:44.760Z,0
2017-03-25T03:20:54.385Z,0
2017-03-25T03:22:04.004Z,0
2017-03-25T03:23:13.618Z,0
2017-03-25T03:24:23.554Z,0
2017-03-25T03:25:33.728Z,0
2017-03-25T03:26:43.624Z,0
2017-03-25T03:27:53.557Z,0
2017-03-25T03:29:03.465Z,0
2017-03-25T03:30:13.384Z,0
2017-03-25T03:31:23.547Z,0
2017-03-25T03:32:33.597Z,0
2017-03-25T03:33:42.865Z,0
2017-03-25T03:34:52.141Z,0
2017-03-25T03:36:01.725Z,0
2017-03-25T03:37:11.994Z,0
2017-03-25T03:38:21.941Z,0
2017-03-25T03:39:31.885Z,0
2017-03-25T03:40:41.491Z,0
2017-03-25T03:41:51.449Z,0
2017-03-25T03:43:01.622Z,0
2017-03-25T03:44:11.581Z,0
2017-03-25T03:45:21.194Z,0
2017-03-25T03:46:30.829Z,0
2017-03-25T03:47:40.445Z,0
2017-03-25T03:48:50.632Z,0
2017-03-25T03:50:00.536Z,0
2017-03-25T03:51:10.559Z,0
2017-03-25T03:52:19.863Z,0
2017-03-25T03:53:29.757Z,0
2017-03-25T03:54:39.952Z,0
2017-03-25T03:55:49.845Z,0
2017-03-25T03:56:59.770Z,0
2017-03-25T03:58:09.704Z,0
2017-03-25T03:59:19.015Z,0
2017-03-25T04:00:29.180Z,0
2017-03-25T04:01:39.089Z,0
2017-03-25T04:02:48.988Z,0
2017-03-25T04:03:58.578Z,0
2017-03-25T04:05:08.490Z,0
2017-03-25T04:06:18.708Z,0
2017-03-25T04:07:28.689Z,0
2017-03-25T04:08:38.757Z,0
2017-03-25T04:09:48.657Z,0
2017-03-25T04:10:58.609Z,0
2017-03-25T04:12:08.177Z,0
2017-03-25T04:13:18.081Z,0
2017-03-25T04:14:28.045Z,0
2017-03-25T04:15:37.619Z,0
2017-03-25T04:16:46.879Z,0
2017-03-25T04:17:56.506Z,0
2017-03-25T04:19:06.444Z,0
2017-03-25T04:20:16.341Z,0
2017-03-25T04:21:26.334Z,0
2017-03-25T04:22:36.269Z,0
2017-03-25T04:23:46.523Z,0
2017-03-25T04:24:56.456Z,0
2017-03-25T04:26:05.722Z,0
2017-03-25T04:27:15.657Z,0
2017-03-25T04:28:25.575Z,0
2017-03-25T04:29:35.875Z,0
2017-03-25T04:30:45.846Z,0
2017-03-25T04:31:55.432Z,0
2017-03-25T04:33:05.203Z,0
2017-03-25T04:34:14.823Z,0
2017-03-25T04:35:25.087Z,0
2017-03-25T04:36:34.995Z,0
2017-03-25T04:37:44.940Z,0
2017-03-25T04:38:55.080Z,0
2017-03-25T04:40:04.990Z,0
2017-03-25T04:41:14.837Z,0
2017-03-25T04:42:24.825Z,0
2017-03-25T04:43:34.778Z,0
2017-03-25T04:44:44.782Z,0
2017-03-25T04:45:54.673Z,0
2017-03-25T04:47:05.005Z,0
2017-03-25T04:48:14.812Z,0
2017-03-25T04:49:24.442Z,0
2017-03-25T04:50:34.355Z,0
2017-03-25T04:51:43.941Z,0
2017-03-25T04:52:53.791Z,0
2017-03-25T04:54:03.816Z,0
2017-03-25T04:55:13.728Z,0
2017-03-25T04:56:23.318Z,0
2017-03-25T04:57:33.224Z,0
2017-03-25T04:58:43.427Z,5
2017-03-25T04:59:53.381Z,5
2017-03-25T05:01:02.737Z,5
2017-03-25T05:02:12.323Z,5
2017-03-25T05:03:21.920Z,5
2017-03-25T05:04:32.136Z,5
2017-03-25T05:05:42.050Z,10
2017-03-25T05:06:51.738Z,10
2017-03-25T05:08:00.690Z,10
2017-03-25T05:09:10.653Z,10
2017-03-25T05:10:21.135Z,15
2017-03-25T05:11:30.984Z,15
2017-03-25T05:12:40.897Z,15
2017-03-25T05:13:50.468Z,20
2017-03-25T05:15:00.161Z,20
2017-03-25T05:16:10.398Z,20
2017-03-25T05:17:19.984Z,25
2017-03-25T05:18:29.912Z,25
2017-03-25T05:19:39.527Z,25
2017-03-25T05:20:49.103Z,30
2017-03-25T05:21:59.054Z,30
2017-03-25T05:23:09.068Z,35
2017-03-25T05:24:19.060Z,35
2017-03-25T05:25:28.997Z,40
2017-03-25T05:26:38.601Z,40
2017-03-25T05:27:48.812Z,40
2017-03-25T05:28:58.404Z,45
2017-03-25T05:30:08.331Z,45
2017-03-25T05:31:17.922Z,50
2017-03-25T05:32:27.541Z,50
2017-03-25T05:33:37.694Z,55
2017-03-25T05:34:47.610Z,55
2017-03-25T05:35:57.003Z,60
2017-03-25T05:37:06.934Z,65
2017-03-25T05:38:16.239Z,65
2017-03-25T05:39:26.445Z,70
2017-03-25T05:40:36.041Z,70
2017-03-25T05:41:45.941Z,75
2017-03-25T05:42:55.870Z,75
2017-03-25T05:44:05.789Z,80
2017-03-25T05:45:15.961Z,85
2017-03-25T05:46:25.581Z,85
2017-03-25T05:47:35.486Z,85
2017-03-25T05:48:45.421Z,85
2017-03-25T05:49:55.349Z,90
2017-03-25T05:51:05.582Z,95
2017-03-25T05:52:15.200Z,100
2017-03-25T05:53:25.186Z,100
2017-03-25T05:54:35.188Z,105
2017-03-25T05:55:45.087Z,110
2017-03-25T05:56:55.283Z,120
2017-03-25T05:58:05.197Z,125
2017-03-25T05:59:15.256Z,130
2017-03-25T06:00:25.186Z,135
2017-03-25T06:01:35.094Z,145
2017-03-25T06:02:44.926Z,150
2017-03-25T06:03:54.860Z,150
2017-03-25T06:05:04.812Z,155
2017-03-25T06:06:14.091Z,160
2017-03-25T06:07:23.848Z,165
2017-03-25T06:08:33.737Z,170
2017-03-25T06:09:43.395Z,180
2017-03-25T06:10:53.458Z,185
2017-03-25T06:12:03.388Z,190
2017-03-25T06:13:13.307Z,200
2017-03-25T06:14:23.296Z,205
2017-03-25T06:15:33.206Z,210
2017-03-25T06:16:42.471Z,210
2017-03-25T06:17:52.069Z,215
2017-03-25T06:19:02.081Z,215
2017-03-25T06:20:12.240Z,220
2017-03-25T06:21:21.968Z,220
2017-03-25T06:22:31.568Z,220
2017-03-25T06:23:41.188Z,225
2017-03-25T06:24:50.772Z,225
2017-03-25T06:26:00.697Z,230
2017-03-25T06:27:10.625Z,230
2017-03-25T06:28:20.641Z,235
2017-03-25T06:29:30.548Z,235
2017-03-25T06:30:40.206Z,240
2017-03-25T06:31:50.065Z,245
2017-03-25T06:33:00.013Z,245
2017-03-25T06:34:09.984Z,250
2017-03-25T06:35:19.889Z,250
2017-03-25T06:36:29.792Z,255
2017-03-25T06:37:40.005Z,260
2017-03-25T06:38:49.942Z,260
2017-03-25T06:39:59.982Z,265
2017-03-25T06:41:09.901Z,270
2017-03-25T06:42:19.943Z,270
2017-03-25T06:43:30.134Z,285
2017-03-25T06:44:39.794Z,285
2017-03-25T06:45:49.109Z,285
2017-03-25T06:46:59.043Z,290
2017-03-25T06:48:08.639Z,295
2017-03-25T06:49:18.851Z,300
2017-03-25T06:50:28.469Z,305
2017-03-25T06:51:38.372Z,315
2017-03-25T06:52:48.377Z,320
2017-03-25T06:53:58.644Z,335
2017-03-25T06:55:08.854Z,345
2017-03-25T06:56:18.858Z,355
2017-03-25T06:57:28.465Z,365
2017-03-25T06:58:37.874Z,375
2017-03-25T06:59:47.460Z,390
2017-03-25T07:00:57.646Z,400
2017-03-25T07:02:07.885Z,410
2017-03-25T07:03:17.799Z,415
2017-03-25T07:04:27.373Z,415
2017-03-25T07:05:37.288Z,410
2017-03-25T07:06:47.443Z,405
2017-03-25T07:07:57.414Z,400
2017-03-25T07:09:07.008Z,395
2017-03-25T07:10:16.951Z,390
2017-03-25T07:11:26.957Z,385
2017-03-25T07:12:37.293Z,385
2017-03-25T07:13:47.201Z,385
2017-03-25T07:14:57.101Z,385
2017-03-25T07:16:07.062Z,385
2017-03-25T07:17:16.975Z,390
2017-03-25T07:18:27.226Z,405
2017-03-25T07:19:37.147Z,415
2017-03-25T07:20:46.731Z,425
2017-03-25T07:21:56.431Z,435
2017-03-25T07:23:06.119Z,435
2017-03-25T07:24:16.287Z,445
2017-03-25T07:25:26.207Z,450
2017-03-25T07:26:36.128Z,460
2017-03-25T07:27:46.025Z,470
2017-03-25T07:28:55.984Z,480
2017-03-25T07:30:06.145Z,495
2017-03-25T07:31:15.798Z,505
2017-03-25T07:32:25.386Z,520
2017-03-25T07:33:35.349Z,530
2017-03-25T07:34:45.279Z,540
2017-03-25T07:35:55.475Z,545
2017-03-25T07:37:05.103Z,550
2017-03-25T07:38:14.691Z,555
2017-03-25T07:39:24.287Z,555
2017-03-25T07:40:34.233Z,555
2017-03-25T07:41:44.106Z,555
2017-03-25T07:42:54.009Z,550
2017-03-25T07:44:03.961Z,550
2017-03-25T07:45:13.973Z,555
2017-03-25T07:46:23.911Z,555
2017-03-25T07:47:33.849Z,560
2017-03-25T07:48:43.832Z,555
2017-03-25T07:49:53.787Z,565
2017-03-25T07:51:03.480Z,575
2017-03-25T07:52:13.511Z,580
2017-03-25T07:53:23.690Z,580
2017-03-25T07:54:33.275Z,590
2017-03-25T07:55:43.188Z,585
2017-03-25T07:56:52.154Z,600
2017-03-25T07:58:02.226Z,615
2017-03-25T07:59:12.394Z,625
2017-03-25T08:00:22.297Z,630
2017-03-25T08:01:32.019Z,640
2017-03-25T08:02:41.994Z,645
2017-03-25T08:03:51.904Z,655
2017-03-25T08:05:01.846Z,665
2017-03-25T08:06:11.890Z,685
2017-03-25T08:07:23.424Z,700
2017-03-25T08:08:33.988Z,720
2017-03-25T08:09:44.315Z,745
2017-03-25T08:10:54.829Z,765
2017-03-25T08:12:05.114Z,800
2017-03-25T08:13:15.635Z,950
2017-03-25T08:14:26.161Z,1295
2017-03-25T08:15:36.374Z,1590
2017-03-25T08:16:46.883Z,1595
2017-03-25T08:17:57.446Z,1515
2017-03-25T08:19:07.658Z,1375
2017-03-25T08:20:17.657Z,1385
2017-03-25T08:21:28.237Z,1420
2017-03-25T08:22:39.002Z,1490
2017-03-25T08:23:49.556Z,1580
2017-03-25T08:24:59.814Z,1670
2017-03-25T08:26:10.308Z,1670
2017-03-25T08:27:20.836Z,1680
2017-03-25T08:28:31.594Z,1740
2017-03-25T08:29:42.285Z,1755
2017-03-25T08:30:52.471Z,1725
2017-03-25T08:32:02.721Z,1720
2017-03-25T08:33:12.957Z,1745
2017-03-25T08:34:23.729Z,1825
2017-03-25T08:35:34.243Z,1835
2017-03-25T08:36:44.573Z,1860
2017-03-25T08:37:54.779Z,1885
2017-03-25T08:39:05.372Z,1905
2017-03-25T08:40:16.161Z,2000
2017-03-25T08:41:26.342Z,2010
2017-03-25T08:42:36.535Z,2045
2017-03-25T08:43:46.769Z,2100
2017-03-25T08:44:57.418Z,2085
2017-03-25T08:46:08.170Z,2150
2017-03-25T08:47:18.362Z,2250
2017-03-25T08:48:28.989Z,2355
2017-03-25T08:49:39.629Z,2265
2017-03-25T08:50:50.159Z,2240
2017-03-25T08:52:00.946Z,2395
2017-03-25T08:53:11.503Z,2430
2017-03-25T08:54:21.810Z,2610
2017-03-25T08:55:32.345Z,2750
2017-03-25T08:56:42.532Z,2790
2017-03-25T08:57:52.615Z,2750
2017-03-25T08:59:03.163Z,2750
2017-03-25T09:00:13.479Z,2730
2017-03-25T09:01:24.026Z,2675
2017-03-25T09:02:34.294Z,2630
2017-03-25T09:03:44.881Z,2725
2017-03-25T09:04:55.106Z,2830
2017-03-25T09:06:05.623Z,2960
2017-03-25T09:07:15.744Z,2860
2017-03-25T09:08:26.091Z,2675
2017-03-25T09:09:36.871Z,2570
2017-03-25T09:10:47.483Z,2595
2017-03-25T09:11:57.732Z,2530
2017-03-25T09:13:08.255Z,2610
2017-03-25T09:14:18.836Z,2660
2017-03-25T09:15:29.338Z,2730
2017-03-25T09:16:39.906Z,2785
2017-03-25T09:17:50.126Z,2705
2017-03-25T09:19:01.339Z,2785
2017-03-25T09:20:12.555Z,2815
2017-03-25T09:21:23.319Z,3005
2017-03-25T09:22:33.568Z,3110
2017-03-25T09:23:44.077Z,3030
2017-03-25T09:24:54.636Z,3065
2017-03-25T09:26:05.171Z,3020
2017-03-25T09:27:16.046Z,3150
2017-03-25T09:28:26.639Z,2965
2017-03-25T09:29:36.879Z,3005
2017-03-25T09:30:47.530Z,2980
2017-03-25T09:31:57.669Z,3125
2017-03-25T09:33:08.526Z,3240
2017-03-25T09:34:19.095Z,3150
2017-03-25T09:35:29.739Z,3210
2017-03-25T09:36:39.946Z,3200
2017-03-25T09:37:50.492Z,3165
2017-03-25T09:39:01.266Z,3100
2017-03-25T09:40:11.178Z,3180
2017-03-25T09:41:21.741Z,3180
2017-03-25T09:42:31.947Z,3150
2017-03-25T09:43:42.155Z,3100
2017-03-25T09:44:53.888Z,3360
2017-03-25T09:46:04.741Z,3440
2017-03-25T09:47:15.269Z,3355
2017-03-25T09:48:25.912Z,3315
2017-03-25T09:49:36.100Z,3225
2017-03-25T09:50:46.622Z,3465
2017-03-25T09:51:56.830Z,3440
2017-03-25T09:53:07.372Z,3325
2017-03-25T09:54:17.655Z,3320
2017-03-25T09:55:28.877Z,3655
2017-03-25T09:56:39.746Z,3665
2017-03-25T09:57:49.956Z,3375
2017-03-25T09:59:00.162Z,3445
2017-03-25T10:00:10.406Z,3510
2017-03-25T10:01:20.909Z,3565
2017-03-25T10:02:31.387Z,3845
2017-03-25T10:03:41.949Z,3780
2017-03-25T10:04:51.870Z,3870
2017-03-25T10:06:03.042Z,3745
2017-03-25T10:07:13.256Z,3700
2017-03-25T10:08:24.029Z,3705
2017-03-25T10:09:34.167Z,3655
2017-03-25T10:10:44.697Z,3455
2017-03-25T10:11:55.217Z,3305
2017-03-25T10:13:05.801Z,3220
2017-03-25T10:14:16.594Z,3350
2017-03-25T10:15:26.477Z,3595
2017-03-25T10:16:37.010Z,3880
2017-03-25T10:17:47.614Z,4350
2017-03-25T10:18:58.184Z,4550
2017-03-25T10:20:09.075Z,4560
2017-03-25T10:21:20.649Z,4460
2017-03-25T10:22:31.203Z,4275
2017-03-25T10:23:41.195Z,3895
2017-03-25T10:24:51.364Z,3535
2017-03-25T10:26:01.851Z,3270
2017-03-25T10:27:12.063Z,3225
2017-03-25T10:28:22.733Z,3255
2017-03-25T10:29:32.999Z,3385
2017-03-25T10:30:43.665Z,3715
2017-03-25T10:31:54.460Z,3995
2017-03-25T10:33:05.005Z,4100
2017-03-25T10:34:15.588Z,4015
2017-03-25T10:35:25.839Z,3680
2017-03-25T10:36:36.129Z,3620
2017-03-25T10:37:46.947Z,3600
2017-03-25T10:38:57.223Z,3965
2017-03-25T10:40:07.787Z,4405
2017-03-25T10:41:17.681Z,4650
2017-03-25T10:42:28.257Z,4320
2017-03-25T10:43:39.058Z,3970
2017-03-25T10:44:49.585Z,3815
2017-03-25T10:45:59.806Z,3830
2017-03-25T10:47:10.409Z,3830
2017-03-25T10:48:20.929Z,3910
2017-03-25T10:49:31.095Z,3925
2017-03-25T10:50:41.670Z,3965
2017-03-25T10:51:52.234Z,3920
2017-03-25T10:53:02.162Z,4045
2017-03-25T10:54:12.548Z,3980
2017-03-25T10:55:24.315Z,3920
2017-03-25T10:56:34.871Z,3630
2017-03-25T10:57:45.176Z,3615
2017-03-25T10:58:55.765Z,3615
2017-03-25T11:00:06.294Z,3675
2017-03-25T11:01:17.093Z,3955
2017-03-25T11:02:27.630Z,3840
2017-03-25T11:03:38.169Z,3880
2017-03-25T11:04:48.052Z,3855
2017-03-25T11:05:58.352Z,4030
2017-03-25T11:07:10.098Z,4295
2017-03-25T11:08:20.641Z,4405
2017-03-25T11:09:31.202Z,4335
2017-03-25T11:10:41.743Z,4200
2017-03-25T11:11:52.939Z,4110
2017-03-25T11:13:03.477Z,4070
2017-03-25T11:14:14.671Z,4155
2017-03-25T11:15:24.558Z,4225
2017-03-25T11:16:35.098Z,4240
2017-03-25T11:17:45.638Z,4185
2017-03-25T11:18:56.959Z,4115
2017-03-25T11:20:07.530Z,4170
2017-03-25T11:21:18.066Z,4275
2017-03-25T11:22:28.320Z,4235
2017-03-25T11:23:38.959Z,4160
2017-03-25T11:24:49.726Z,4140
2017-03-25T11:26:01.248Z,4325
2017-03-25T11:27:11.906Z,4560
2017-03-25T11:28:22.459Z,4310
2017-03-25T11:29:32.986Z,4450
2017-03-25T11:30:43.751Z,4510
2017-03-25T11:31:53.660Z,4560
2017-03-25T11:33:04.289Z,4375
2017-03-25T11:34:14.583Z,4165
2017-03-25T11:35:25.207Z,4155
2017-03-25T11:36:35.656Z,4300
2017-03-25T11:37:46.256Z,4495
2017-03-25T11:38:56.563Z,4450
2017-03-25T11:40:07.141Z,4410
2017-03-25T11:41:17.673Z,4675
2017-03-25T11:42:28.457Z,4630
2017-03-25T11:43:38.974Z,4535
2017-03-25T11:44:49.660Z,3835
2017-03-25T11:45:59.893Z,3515
2017-03-25T11:47:10.432Z,3715
2017-03-25T11:48:22.179Z,4165
2017-03-25T11:49:32.802Z,4265
2017-03-25T11:50:43.419Z,4210
2017-03-25T11:51:53.667Z,3860
2017-03-25T11:53:05.228Z,3530
2017-03-25T11:54:16.106Z,3835
2017-03-25T11:55:26.339Z,3200
2017-03-25T11:56:36.585Z,3825
2017-03-25T11:57:46.861Z,3695
2017-03-25T11:58:57.138Z,3890
2017-03-25T12:00:07.671Z,3820
2017-03-25T12:01:18.243Z,3785
2017-03-25T12:02:28.783Z,4440
2017-03-25T12:03:39.383Z,4450
2017-03-25T12:04:49.936Z,4695
2017-03-25T12:06:00.094Z,4245
2017-03-25T12:07:10.628Z,3805
2017-03-25T12:08:21.174Z,3750
2017-03-25T12:09:31.745Z,3685
2017-03-25T12:10:42.339Z,3655
2017-03-25T12:11:53.122Z,3650
2017-03-25T12:13:03.701Z,3800
2017-03-25T12:14:13.919Z,3855
2017-03-25T12:15:24.465Z,3810
2017-03-25T12:16:34.674Z,3455
2017-03-25T12:17:44.858Z,3500
2017-03-25T12:18:55.054Z,3690
2017-03-25T12:20:05.269Z,3805
2017-03-25T12:21:15.492Z,3850
2017-03-25T12:22:25.771Z,3845
2017-03-25T12:23:35.942Z,3885
2017-03-25T12:24:46.478Z,3750
2017-03-25T12:25:57.039Z,3695
2017-03-25T12:27:07.648Z,3625
2017-03-25T12:28:17.943Z,3590
2017-03-25T12:29:29.067Z,3395
2017-03-25T12:30:39.626Z,3365
2017-03-25T12:31:51.127Z,3520
2017-03-25T12:33:01.665Z,3765
2017-03-25T12:34:12.402Z,3980
2017-03-25T12:35:23.208Z,3905
2017-03-25T12:36:33.794Z,3780
2017-03-25T12:37:44.355Z,3870
2017-03-25T12:38:54.269Z,3855
2017-03-25T12:40:03.866Z,3700
2017-03-25T12:41:14.780Z,3730
2017-03-25T12:42:24.997Z,3725
2017-03-25T12:43:35.532Z,3810
2017-03-25T12:44:45.831Z,3780
2017-03-25T12:45:56.368Z,3795
2017-03-25T12:47:06.867Z,3690
2017-03-25T12:48:17.529Z,3665
2017-03-25T12:49:27.434Z,3675
2017-03-25T12:50:38.025Z,3580
2017-03-25T12:51:48.334Z,3645
2017-03-25T12:52:58.485Z,3840
2017-03-25T12:54:08.720Z,3820
2017-03-25T12:55:19.344Z,3865
2017-03-25T12:56:29.924Z,3605
2017-03-25T12:57:40.274Z,3420
2017-03-25T12:58:50.718Z,3430
2017-03-25T13:00:01.249Z,3475
2017-03-25T13:01:11.526Z,3385
2017-03-25T13:02:22.116Z,3245
2017-03-25T13:03:32.657Z,3235
2017-03-25T13:04:43.115Z,3370
2017-03-25T13:05:53.686Z,3300
2017-03-25T13:07:04.269Z,3190
2017-03-25T13:08:14.822Z,3155
2017-03-25T13:09:25.394Z,3125
2017-03-25T13:10:36.253Z,3030
2017-03-25T13:11:46.472Z,3110
2017-03-25T13:12:57.005Z,3180
2017-03-25T13:14:06.986Z,3475
2017-03-25T13:15:17.566Z,3455
2017-03-25T13:16:27.758Z,3315
2017-03-25T13:17:38.442Z,3005
2017-03-25T13:18:48.619Z,2830
2017-03-25T13:19:59.209Z,2870
2017-03-25T13:21:09.806Z,3095
2017-03-25T13:22:21.269Z,3455
2017-03-25T13:23:31.493Z,3445
2017-03-25T13:24:42.126Z,3615
2017-03-25T13:25:52.038Z,3230
2017-03-25T13:27:02.595Z,2930
2017-03-25T13:28:13.165Z,2715
2017-03-25T13:29:23.723Z,2465
2017-03-25T13:30:34.355Z,2315
2017-03-25T13:31:44.947Z,2135
2017-03-25T13:32:55.482Z,2115
2017-03-25T13:34:05.984Z,2145
2017-03-25T13:35:16.498Z,2265
2017-03-25T13:36:27.042Z,2120
2017-03-25T13:37:38.540Z,2395
2017-03-25T13:38:49.133Z,2730
2017-03-25T13:39:59.660Z,2765
2017-03-25T13:41:09.887Z,2860
2017-03-25T13:42:20.182Z,2810
2017-03-25T13:43:30.362Z,2975
2017-03-25T13:44:40.911Z,3100
2017-03-25T13:45:52.841Z,2925
2017-03-25T13:47:02.128Z,2385
2017-03-25T13:48:11.430Z,2570
2017-03-25T13:49:21.053Z,2570
2017-03-25T13:50:31.015Z,2555
2017-03-25T13:51:41.248Z,2705
2017-03-25T13:52:50.893Z,2780
2017-03-25T13:54:00.900Z,2720
2017-03-25T13:55:10.916Z,2675
2017-03-25T13:56:20.584Z,2550
2017-03-25T13:57:30.968Z,2515
2017-03-25T13:58:40.899Z,2165
2017-03-25T13:59:50.236Z,2210
2017-03-25T14:00:59.853Z,2130
2017-03-25T14:02:09.801Z,2585
2017-03-25T14:03:19.995Z,2495
2017-03-25T14:04:29.958Z,2265
2017-03-25T14:05:39.982Z,1780
2017-03-25T14:06:49.910Z,2135
2017-03-25T14:07:59.863Z,2600
2017-03-25T14:09:10.154Z,2465
2017-03-25T14:10:20.113Z,2580
2017-03-25T14:11:30.063Z,2540
2017-03-25T14:12:40.212Z,2240
2017-03-25T14:13:49.835Z,2360
2017-03-25T14:15:00.024Z,2215
2017-03-25T14:16:09.628Z,2185
2017-03-25T14:17:19.561Z,2210
2017-03-25T14:18:29.547Z,2410
2017-03-25T14:19:39.228Z,2595
2017-03-25T14:20:49.447Z,2325
2017-03-25T14:21:59.387Z,2470
2017-03-25T14:23:09.413Z,2475
2017-03-25T14:24:19.375Z,2125
2017-03-25T14:25:29.304Z,1785
2017-03-25T14:26:39.229Z,1845
2017-03-25T14:27:48.842Z,1970
2017-03-25T14:28:58.920Z,1960
2017-03-25T14:30:08.888Z,2240
2017-03-25T14:31:18.530Z,2635
2017-03-25T14:32:28.718Z,2870
2017-03-25T14:33:38.344Z,2650
2017-03-25T14:34:47.642Z,2615
2017-03-25T14:35:57.290Z,2815
2017-03-25T14:37:07.236Z,2725
2017-03-25T14:38:17.141Z,2460
2017-03-25T14:39:27.115Z,2140
2017-03-25T14:40:37.104Z,2165
2017-03-25T14:41:47.034Z,2395
2017-03-25T14:42:57.005Z,2640
2017-03-25T14:44:07.244Z,2620
2017-03-25T14:45:16.566Z,2545
2017-03-25T14:46:26.263Z,2610
2017-03-25T14:47:35.910Z,2485
2017-03-25T14:48:45.915Z,2190
2017-03-25T14:49:56.099Z,2065
2017-03-25T14:51:06.046Z,1940
2017-03-25T14:52:16.012Z,1980
2017-03-25T14:53:25.312Z,1940
2017-03-25T14:54:35.301Z,1780
2017-03-25T14:55:45.337Z,1810
2017-03-25T14:56:54.986Z,1830
2017-03-25T14:58:04.317Z,1720
2017-03-25T14:59:14.270Z,1505
2017-03-25T15:00:24.327Z,1330
2017-03-25T15:01:34.195Z,1310
2017-03-25T15:02:43.494Z,1315
2017-03-25T15:03:52.799Z,1210
2017-03-25T15:05:02.755Z,1190
2017-03-25T15:06:12.441Z,1210
2017-03-25T15:07:22.743Z,1205
2017-03-25T15:08:32.419Z,1235
2017-03-25T15:09:42.352Z,1220
2017-03-25T15:10:52.046Z,1255
2017-03-25T15:12:02.029Z,1120
2017-03-25T15:13:12.259Z,1105
2017-03-25T15:14:22.277Z,1115
2017-03-25T15:15:32.283Z,1205
2017-03-25T15:16:42.274Z,1435
2017-03-25T15:17:51.903Z,1535
2017-03-25T15:19:02.135Z,1575
2017-03-25T15:20:12.104Z,1515
2017-03-25T15:21:22.054Z,1290
2017-03-25T15:22:32.044Z,1220
2017-03-25T15:23:42.090Z,1295
2017-03-25T15:24:51.938Z,1405
2017-03-25T15:26:01.960Z,1340
2017-03-25T15:27:11.564Z,1335
2017-03-25T15:28:20.533Z,1335
2017-03-25T15:29:30.223Z,1420
2017-03-25T15:30:40.370Z,1335
2017-03-25T15:31:50.035Z,1235
2017-03-25T15:32:59.981Z,1275
2017-03-25T15:34:09.006Z,1295
2017-03-25T15:35:18.684Z,1265
2017-03-25T15:36:29.034Z,1150
2017-03-25T15:37:38.979Z,1320
2017-03-25T15:38:48.300Z,1385
2017-03-25T15:39:58.065Z,1520
2017-03-25T15:41:08.043Z,1400
2017-03-25T15:42:18.215Z,1235
2017-03-25T15:43:27.855Z,1230
2017-03-25T15:44:37.799Z,1370
2017-03-25T15:45:47.438Z,1340
2017-03-25T15:46:57.139Z,1225
2017-03-25T15:48:07.330Z,1160
2017-03-25T15:49:17.300Z,1185
2017-03-25T15:50:27.224Z,1175
2017-03-25T15:51:36.884Z,1215
2017-03-25T15:52:46.817Z,1265
2017-03-25T15:53:57.138Z,1210
2017-03-25T15:55:07.175Z,1155
2017-03-25T15:56:16.915Z,1095
2017-03-25T15:57:26.862Z,1000
2017-03-25T15:58:36.965Z,890
2017-03-25T15:59:46.926Z,805
2017-03-25T16:00:56.571Z,740
2017-03-25T16:02:06.226Z,655
2017-03-25T16:03:16.177Z,605
2017-03-25T16:04:26.164Z,630
2017-03-25T16:05:36.399Z,615
2017-03-25T16:06:46.050Z,620
2017-03-25T16:07:56.072Z,600
2017-03-25T16:09:05.825Z,585
2017-03-25T16:10:15.428Z,570
2017-03-25T16:11:25.610Z,530
2017-03-25T16:12:35.251Z,480